Time;durP1;ratioP1;P1;durP2;ratioP2;P2;SDS_P1;SDS_P2;PMS_P1;PMS_P2;Temp;Humidity;BMP_temperature;BMP_pressure;BME280_temperature;BME280_humidity;BME280_pressure;Samples;Min_cycle;Max_cycle;Signal;HPM_P1;HPM_P2
2023/01/31 00:01:41;;;;;;;0.10;0.10;;;;;;;6.23;41.05;94644.81;5069909;28;20214;-65
2023/01/31 00:04:11;;;;;;;0.15;0.15;;;;;;;6.39;40.85;94650.03;5066739;28;20205;-64
2023/01/31 00:06:41;;;;;;;1.60;1.50;;;;;;;6.41;40.92;94668.81;5059050;28;20217;-67
2023/01/31 00:09:10;;;;;;;0.00;0.00;;;;;;;6.36;40.34;94660.13;5049792;28;20253;-65
2023/01/31 00:11:37;;;;;;;0.55;0.55;;;;;;;6.18;40.78;94667.13;5049912;28;20197;-65
2023/01/31 00:14:06;;;;;;;0.57;0.30;;;;;;;6.23;40.56;94671.63;5049685;28;20325;-63
2023/01/31 00:16:33;;;;;;;4.30;2.67;;;;;;;5.88;41.33;94663.19;5049550;28;20196;-66
2023/01/31 00:19:01;;;;;;;0.50;0.40;;;;;;;6.12;41.10;94662.88;5049683;28;20205;-64
2023/01/31 00:21:29;;;;;;;1.23;1.13;;;;;;;6.18;41.14;94650.75;5049154;28;20208;-65
2023/01/31 00:23:57;;;;;;;0.80;0.80;;;;;;;6.29;41.32;94639.47;5049568;28;20192;-63
2023/01/31 00:26:28;;;;;;;1.92;1.70;;;;;;;6.21;41.72;94637.25;5048407;28;20215;-66
2023/01/31 00:28:57;;;;;;;1.05;0.52;;;;;;;6.26;41.15;94644.38;5036448;28;20198;-65
2023/01/31 00:31:26;;;;;;;0.98;0.98;;;;;;;6.38;41.25;94648.47;5048619;28;20243;-65
2023/01/31 00:33:54;;;;;;;0.85;0.85;;;;;;;6.34;41.26;94642.16;5049151;28;20250;-63
2023/01/31 00:36:27;;;;;;;1.08;0.82;;;;;;;6.28;41.35;94648.28;5047093;28;20205;-65
2023/01/31 00:38:57;;;;;;;1.48;1.38;;;;;;;5.85;42.38;94637.66;5049294;28;20253;-66
2023/01/31 00:41:26;;;;;;;2.28;1.63;;;;;;;6.13;41.92;94645.47;5048253;28;20193;-64
2023/01/31 00:43:52;;;;;;;0.88;0.85;;;;;;;6.13;41.81;94633.22;5049117;28;20200;-67
2023/01/31 00:46:20;;;;;;;0.50;0.47;;;;;;;6.27;41.70;94646.72;5048955;28;20188;-66
2023/01/31 00:48:48;;;;;;;0.10;0.10;;;;;;;6.31;41.36;94652.25;5049522;28;20227;-64
2023/01/31 00:51:16;;;;;;;0.10;0.10;;;;;;;6.26;41.81;94639.16;5048625;28;20193;-65
2023/01/31 00:53:43;;;;;;;9.38;1.95;;;;;;;5.93;42.08;94645.84;5048889;28;20224;-66
2023/01/31 00:56:12;;;;;;;0.03;0.03;;;;;;;5.76;41.85;94645.00;5048545;28;20648;-64
2023/01/31 00:58:40;;;;;;;0.20;0.20;;;;;;;4.85;44.03;94637.13;5035527;28;20209;-67
2023/01/31 01:01:22;;;;;;;2.72;1.90;;;;;;;4.34;45.51;94644.78;5048404;28;20292;-66
2023/01/31 01:03:50;;;;;;;5.18;3.22;;;;;;;5.15;44.01;94643.00;5048600;28;20262;-63
2023/01/31 01:06:18;;;;;;;0.00;0.00;;;;;;;5.44;42.96;94630.06;5047151;28;20261;-67
2023/01/31 01:08:46;;;;;;;0.35;0.35;;;;;;;5.65;43.41;94648.44;5049126;28;20196;-66
2023/01/31 01:11:21;;;;;;;0.98;0.85;;;;;;;5.97;42.60;94652.19;5030744;28;20236;-67
2023/01/31 01:13:48;;;;;;;1.52;1.42;;;;;;;5.79;42.75;94659.34;5048409;28;20362;-65
2023/01/31 01:16:21;;;;;;;4.60;3.30;;;;;;;5.52;42.64;94642.69;5048434;28;20196;-64
2023/01/31 01:18:49;;;;;;;0.10;0.10;;;;;;;5.72;42.03;94648.28;5048667;28;20204;-67
2023/01/31 01:21:20;;;;;;;0.55;0.45;;;;;;;5.33;42.69;94651.66;5048218;28;20620;-64
2023/01/31 01:23:48;;;;;;;1.15;0.40;;;;;;;5.38;42.51;94646.56;5048749;28;20625;-65
2023/01/31 01:26:23;;;;;;;0.35;0.35;;;;;;;5.32;42.93;94644.88;5047831;28;20274;-63
2023/01/31 01:28:50;;;;;;;0.10;0.10;;;;;;;5.45;42.02;94626.44;5048548;28;20277;-64
2023/01/31 01:31:18;;;;;;;0.80;0.80;;;;;;;5.72;41.60;94633.47;5047892;28;20268;-66
2023/01/31 01:33:47;;;;;;;0.20;0.20;;;;;;;6.07;40.83;94625.56;5034778;28;20278;-66
2023/01/31 01:36:16;;;;;;;0.22;0.22;;;;;;;5.59;40.93;94622.56;5047880;28;20208;-66
2023/01/31 01:38:44;;;;;;;0.10;0.10;;;;;;;5.92;40.93;94622.69;5048502;28;20200;-65
2023/01/31 01:41:12;;;;;;;0.17;0.17;;;;;;;5.91;41.16;94610.72;5048053;28;20196;-65
2023/01/31 01:43:50;;;;;;;0.30;0.30;;;;;;;6.00;40.36;94624.94;5048351;28;20196;-65
2023/01/31 01:46:33;;;;;;;0.38;0.38;;;;;;;6.28;39.81;94626.72;5047658;28;20192;-64
2023/01/31 01:49:17;;;;;;;0.05;0.05;;;;;;;6.47;39.89;94618.44;5048300;28;20307;-63
2023/01/31 01:51:47;;;;;;;0.57;0.57;;;;;;;6.05;40.05;94627.63;5034762;28;20770;-64
2023/01/31 01:54:29;;;;;;;5.47;2.00;;;;;;;6.02;40.00;94623.66;5052724;28;20323;-65
2023/01/31 01:57:00;;;;;;;0.00;0.00;;;;;;;6.33;39.13;94611.19;5050240;28;20266;-62
2023/01/31 01:59:38;;;;;;;0.05;0.05;;;;;;;6.32;39.43;94627.81;5050474;28;20237;-64
2023/01/31 02:02:06;;;;;;;0.10;0.10;;;;;;;6.18;39.46;94632.53;5051750;28;20200;-64
2023/01/31 02:04:35;;;;;;;0.95;0.60;;;;;;;5.99;39.09;94629.34;5052063;28;20189;-63
2023/01/31 02:07:04;;;;;;;0.00;0.00;;;;;;;5.90;38.52;94609.13;5050168;28;20227;-63
2023/01/31 02:09:34;;;;;;;0.15;0.15;;;;;;;6.00;38.73;94627.53;5052394;28;20207;-65
2023/01/31 02:12:04;;;;;;;0.20;0.20;;;;;;;6.15;38.36;94627.78;5050043;28;20593;-64
2023/01/31 02:14:31;;;;;;;0.10;0.10;;;;;;;6.06;37.91;94623.97;5050518;28;20216;-65
2023/01/31 02:16:58;;;;;;;0.00;0.00;;;;;;;6.06;38.04;94634.38;5051091;28;20193;-63
2023/01/31 02:19:33;;;;;;;0.00;0.00;;;;;;;6.10;38.17;94630.28;5050118;28;20571;-65
2023/01/31 02:22:25;;;;;;;0.32;0.20;;;;;;;5.86;37.83;94631.41;5049595;28;20211;-63
2023/01/31 02:25:01;;;;;;;0.00;0.00;;;;;;;5.76;37.41;94633.81;5051077;28;20284;-63
2023/01/31 02:27:43;;;;;;;0.00;0.00;;;;;;;5.73;37.99;94623.88;5038453;28;20216;-63
2023/01/31 02:30:22;;;;;;;1.35;0.30;;;;;;;5.53;37.28;94621.66;5049341;28;20208;-64
2023/01/31 02:32:56;;;;;;;0.80;0.70;;;;;;;5.91;37.21;94623.72;5051443;28;20243;-66
2023/01/31 02:35:47;;;;;;;0.00;0.00;;;;;;;5.71;37.56;94631.13;5029493;28;20266;-64
2023/01/31 02:38:37;;;;;;;0.00;0.00;;;;;;;5.83;37.30;94634.50;5048524;28;20197;-64
2023/01/31 02:41:15;;;;;;;2.30;0.75;;;;;;;6.06;37.17;94635.19;5049365;28;20295;-65
2023/01/31 02:47:02;;;;;;;0.15;0.15;;;;;;;6.15;36.47;94633.78;5050942;28;20583;-63
2023/01/31 02:49:45;;;;;;;0.00;0.00;;;;;;;5.94;37.04;94636.25;5049887;28;20201;-63
2023/01/31 02:52:24;;;;;;;0.17;0.17;;;;;;;6.09;37.09;94644.34;5051322;28;20200;-65
2023/01/31 02:58:04;;;;;;;0.95;0.95;;;;;;;5.97;36.85;94654.78;5051058;28;20222;-63
2023/01/31 03:00:34;;;;;;;0.03;0.03;;;;;;;6.26;36.56;94665.94;5048946;28;20637;-63
2023/01/31 03:03:05;;;;;;;0.00;0.00;;;;;;;6.15;36.23;94654.59;5050721;28;20858;-64
2023/01/31 03:05:32;;;;;;;0.00;0.00;;;;;;;6.15;37.01;94664.19;5049756;28;20227;-65
2023/01/31 03:08:03;;;;;;;0.45;0.45;;;;;;;5.87;37.55;94672.00;5050911;28;20637;-63
2023/01/31 03:10:51;;;;;;;0.00;0.00;;;;;;;5.98;37.74;94676.38;5048968;28;20203;-63
2023/01/31 03:13:55;;;;;;;3.70;1.27;;;;;;;6.06;37.74;94687.19;5049520;28;20235;-64
2023/01/31 03:19:33;;;;;;;0.85;0.52;;;;;;;5.97;37.44;94706.00;5056698;28;20200;-64
2023/01/31 03:22:06;;;;;;;0.00;0.00;;;;;;;5.81;38.40;94710.09;5049881;28;20201;-64
2023/01/31 03:24:34;;;;;;;0.00;0.00;;;;;;;5.41;38.71;94687.69;5049106;28;20192;-64
2023/01/31 03:27:01;;;;;;;0.00;0.00;;;;;;;5.43;39.23;94699.44;5065465;28;20192;-62
2023/01/31 03:29:34;;;;;;;0.00;0.00;;;;;;;5.63;39.09;94706.84;5057658;28;20204;-64
2023/01/31 03:32:10;;;;;;;2.85;1.20;;;;;;;5.74;38.84;94706.03;5048598;28;20648;-62
2023/01/31 03:34:37;;;;;;;1.45;1.13;;;;;;;5.69;38.92;94716.34;5049377;28;20299;-64
2023/01/31 03:37:18;;;;;;;0.35;0.30;;;;;;;5.72;39.85;94721.06;5048987;28;20193;-64
2023/01/31 03:39:55;;;;;;;0.00;0.00;;;;;;;5.94;39.05;94716.88;5048419;28;20318;-62
2023/01/31 03:42:35;;;;;;;0.57;0.30;;;;;;;6.12;38.68;94724.50;5048662;28;20690;-63
2023/01/31 03:45:32;;;;;;;0.10;0.10;;;;;;;5.83;39.33;94738.47;5049416;28;20235;-63
2023/01/31 03:48:02;;;;;;;0.43;0.43;;;;;;;5.72;40.24;94741.88;5048699;28;20201;-64
2023/01/31 03:50:39;;;;;;;0.38;0.38;;;;;;;5.32;40.95;94746.19;5048012;28;20250;-63
2023/01/31 03:53:42;;;;;;;0.43;0.43;;;;;;;5.33;41.42;94747.78;5048589;28;20243;-63
2023/01/31 03:56:17;;;;;;;0.00;0.00;;;;;;;5.30;41.74;94745.63;5049266;28;20216;-64
2023/01/31 03:58:50;;;;;;;4.28;1.65;;;;;;;5.32;41.84;94741.00;5082601;28;20589;-64
2023/01/31 04:01:19;;;;;;;0.00;0.00;;;;;;;4.99;42.79;94742.34;5037294;28;20192;-64
2023/01/31 04:03:58;;;;;;;0.00;0.00;;;;;;;5.36;42.21;94736.94;5048769;28;20254;-64
2023/01/31 04:06:26;;;;;;;0.32;0.32;;;;;;;5.20;42.37;94737.63;5048195;28;20209;-63
2023/01/31 04:08:53;;;;;;;0.00;0.00;;;;;;;5.37;41.97;94733.31;5048618;28;20203;-65
2023/01/31 04:11:24;;;;;;;0.40;0.30;;;;;;;5.04;42.58;94739.88;5048940;28;20863;-63
2023/01/31 04:13:51;;;;;;;0.88;0.77;;;;;;;5.04;43.00;94745.06;5049441;28;20291;-62
2023/01/31 04:16:18;;;;;;;2.08;1.90;;;;;;;4.67;43.53;94754.00;5048077;28;20219;-64
2023/01/31 04:18:45;;;;;;;0.30;0.30;;;;;;;4.93;43.89;94732.84;5049436;28;20201;-62
2023/01/31 04:21:14;;;;;;;0.00;0.00;;;;;;;5.00;43.83;94748.31;5049212;28;20227;-63
2023/01/31 04:23:41;;;;;;;0.00;0.00;;;;;;;4.69;44.71;94749.38;5049599;28;20216;-63
2023/01/31 04:26:07;;;;;;;0.20;0.20;;;;;;;4.61;45.29;94749.72;5048880;28;20200;-63
2023/01/31 04:28:34;;;;;;;0.00;0.00;;;;;;;4.56;45.67;94736.59;5049025;28;20503;-64
2023/01/31 04:31:01;;;;;;;1.02;0.95;;;;;;;4.41;45.77;94740.63;5048922;28;20227;-65
2023/01/31 04:33:28;;;;;;;0.20;0.20;;;;;;;4.41;46.19;94751.81;5048882;28;20220;-62
2023/01/31 04:35:55;;;;;;;0.30;0.13;;;;;;;4.82;45.40;94762.19;5048147;28;20702;-63
2023/01/31 04:38:22;;;;;;;1.40;0.55;;;;;;;5.02;45.14;94757.47;5048977;28;20613;-64
2023/01/31 04:40:49;;;;;;;0.00;0.00;;;;;;;4.79;45.23;94747.06;5048745;28;20205;-64
2023/01/31 04:43:16;;;;;;;0.00;0.00;;;;;;;4.78;45.62;94766.22;5048845;28;20737;-62
2023/01/31 04:45:43;;;;;;;0.25;0.25;;;;;;;4.67;46.34;94779.97;5048831;28;20196;-63
2023/01/31 04:48:10;;;;;;;1.35;1.25;;;;;;;5.10;45.47;94797.91;5047596;28;20654;-64
2023/01/31 04:50:37;;;;;;;1.45;0.70;;;;;;;4.58;46.53;94793.50;5048753;28;20261;-62
2023/01/31 04:53:04;;;;;;;0.25;0.25;;;;;;;4.56;47.12;94787.72;5048976;28;20223;-63
2023/01/31 04:55:30;;;;;;;1.50;1.40;;;;;;;4.63;46.90;94786.63;5048228;28;20794;-64
2023/01/31 04:57:57;;;;;;;0.08;0.08;;;;;;;4.80;46.63;94789.38;5048320;28;20740;-65
2023/01/31 05:00:24;;;;;;;0.20;0.20;;;;;;;4.59;47.01;94782.88;5047735;28;20684;-64
2023/01/31 05:02:52;;;;;;;0.22;0.22;;;;;;;4.62;47.22;94792.03;5048823;28;20201;-64
2023/01/31 05:05:20;;;;;;;0.50;0.50;;;;;;;4.67;46.93;94776.59;5048119;28;20308;-62
2023/01/31 05:07:48;;;;;;;0.20;0.20;;;;;;;3.96;48.56;94766.94;5048435;28;20184;-62
2023/01/31 05:10:15;;;;;;;0.03;0.03;;;;;;;4.27;48.03;94772.97;5048215;28;20302;-63
2023/01/31 05:12:41;;;;;;;0.00;0.00;;;;;;;4.10;48.88;94777.94;5048786;28;20207;-63
2023/01/31 05:15:10;;;;;;;1.45;1.35;;;;;;;4.51;47.79;94770.22;5047848;28;20251;-64
2023/01/31 05:17:37;;;;;;;0.00;0.00;;;;;;;4.36;48.14;94782.00;5048191;28;20189;-64
2023/01/31 05:20:05;;;;;;;0.55;0.55;;;;;;;4.05;48.73;94785.59;5047646;28;20197;-66
2023/01/31 05:22:32;;;;;;;0.25;0.25;;;;;;;4.69;47.54;94790.16;5048277;28;20686;-64
2023/01/31 05:24:59;;;;;;;0.00;0.00;;;;;;;4.33;47.79;94788.41;5048154;28;20203;-64
2023/01/31 05:27:26;;;;;;;0.05;0.05;;;;;;;4.52;47.61;94789.97;5047689;28;20634;-66
2023/01/31 05:29:53;;;;;;;0.22;0.22;;;;;;;4.26;48.21;94795.50;5048125;28;20184;-63
2023/01/31 05:32:20;;;;;;;0.55;0.55;;;;;;;4.72;47.87;94793.09;5048109;28;20228;-65
2023/01/31 05:34:47;;;;;;;1.00;0.50;;;;;;;4.74;47.39;94800.66;5047431;28;20288;-66
2023/01/31 05:37:13;;;;;;;0.00;0.00;;;;;;;4.94;46.94;94795.97;5048474;28;20279;-65
2023/01/31 05:39:40;;;;;;;0.40;0.15;;;;;;;5.14;47.53;94801.63;5048718;28;20192;-67
2023/01/31 05:42:07;;;;;;;0.10;0.10;;;;;;;5.27;46.98;94804.03;5048209;28;20562;-63
2023/01/31 05:44:34;;;;;;;0.20;0.20;;;;;;;5.43;46.88;94794.78;5048262;28;20203;-64
2023/01/31 05:47:01;;;;;;;0.28;0.28;;;;;;;5.21;46.60;94798.94;5047558;28;20207;-64
2023/01/31 05:49:32;;;;;;;1.60;0.52;;;;;;;5.30;46.67;94800.19;5046546;28;20293;-64
2023/01/31 05:51:59;;;;;;;1.08;0.55;;;;;;;5.16;46.43;94799.63;5046180;28;20201;-65
2023/01/31 05:54:26;;;;;;;0.75;0.75;;;;;;;4.59;47.07;94798.47;5046785;28;20215;-64
2023/01/31 05:56:53;;;;;;;0.28;0.28;;;;;;;4.55;47.46;94786.94;5045848;28;20255;-62
2023/01/31 05:59:20;;;;;;;0.30;0.30;;;;;;;5.24;46.83;94798.50;5046243;28;20655;-62
2023/01/31 06:01:47;;;;;;;2.83;2.25;;;;;;;4.79;47.59;94814.53;5046483;28;20188;-66
2023/01/31 06:04:14;;;;;;;0.00;0.00;;;;;;;4.72;47.48;94798.28;5048400;28;20198;-64
2023/01/31 06:06:43;;;;;;;0.70;0.70;;;;;;;4.69;47.20;94805.72;5048253;28;20307;-64
2023/01/31 06:09:10;;;;;;;0.57;0.57;;;;;;;4.82;47.04;94808.91;5049016;28;20196;-64
2023/01/31 06:11:37;;;;;;;0.22;0.22;;;;;;;5.31;46.42;94809.56;5048047;28;20212;-63
2023/01/31 06:14:05;;;;;;;1.10;1.00;;;;;;;5.12;46.67;94816.66;5041041;28;20200;-64
2023/01/31 06:16:32;;;;;;;0.00;0.00;;;;;;;5.01;46.69;94813.03;5048247;28;20224;-64
2023/01/31 06:18:59;;;;;;;0.32;0.32;;;;;;;4.99;46.83;94815.06;5049918;28;20628;-65
2023/01/31 06:21:26;;;;;;;0.13;0.13;;;;;;;4.82;47.34;94834.84;5062600;28;20197;-62
2023/01/31 06:23:53;;;;;;;0.03;0.03;;;;;;;4.88;47.56;94820.19;5063957;28;20268;-65
2023/01/31 06:26:20;;;;;;;0.03;0.03;;;;;;;5.18;46.74;94828.75;5063471;28;20192;-63
2023/01/31 06:28:47;;;;;;;0.00;0.00;;;;;;;5.01;47.55;94833.78;5057557;28;20192;-63
2023/01/31 06:31:14;;;;;;;0.05;0.05;;;;;;;4.88;47.39;94833.19;5044249;28;20220;-63
2023/01/31 06:33:41;;;;;;;0.40;0.40;;;;;;;5.05;47.27;94829.72;5045415;28;20236;-63
2023/01/31 06:36:15;;;;;;;0.30;0.30;;;;;;;5.02;47.10;94834.56;5045462;28;20212;-63
2023/01/31 06:38:50;;;;;;;0.03;0.03;;;;;;;4.55;48.86;94831.03;5045513;28;20665;-63
2023/01/31 06:41:20;;;;;;;0.43;0.43;;;;;;;4.58;48.43;94827.22;5048612;28;20204;-64
2023/01/31 06:43:47;;;;;;;0.25;0.25;;;;;;;4.88;48.24;94839.19;5050669;28;20299;-63
2023/01/31 06:46:14;;;;;;;0.00;0.00;;;;;;;4.88;48.30;94835.78;5050667;28;20200;-64
2023/01/31 06:48:41;;;;;;;0.15;0.15;;;;;;;4.43;49.06;94845.78;5053289;28;20200;-63
2023/01/31 06:51:09;;;;;;;0.00;0.00;;;;;;;4.78;48.50;94849.28;5050818;28;20275;-63
2023/01/31 06:53:35;;;;;;;0.00;0.00;;;;;;;4.16;49.62;94852.25;5051281;28;20193;-62
2023/01/31 06:56:02;;;;;;;0.63;0.47;;;;;;;4.15;49.91;94848.09;5050378;28;20298;-64
2023/01/31 06:58:29;;;;;;;2.88;1.30;;;;;;;5.03;48.33;94852.56;5051204;28;20197;-64
2023/01/31 07:01:03;;;;;;;0.00;0.00;;;;;;;4.86;48.31;94843.78;5050791;28;20197;-64
2023/01/31 07:03:30;;;;;;;0.88;0.82;;;;;;;4.94;48.36;94853.06;5051064;28;20197;-63
2023/01/31 07:05:57;;;;;;;6.28;2.05;;;;;;;5.24;47.80;94853.06;5050897;28;20207;-64
2023/01/31 07:08:24;;;;;;;0.30;0.30;;;;;;;4.36;49.46;94854.63;5050828;28;20232;-64
2023/01/31 07:10:50;;;;;;;0.95;0.50;;;;;;;4.61;48.98;94861.31;5050405;28;20196;-62
2023/01/31 07:13:18;;;;;;;0.45;0.45;;;;;;;4.68;48.65;94849.03;5050494;28;20200;-65
2023/01/31 07:15:45;;;;;;;0.00;0.00;;;;;;;5.25;47.50;94849.41;5050212;28;20220;-63
2023/01/31 07:18:12;;;;;;;0.10;0.10;;;;;;;4.90;48.29;94846.75;5050629;28;20224;-64
2023/01/31 07:20:40;;;;;;;0.20;0.20;;;;;;;5.14;47.43;94848.38;5050347;28;20646;-64
2023/01/31 07:23:07;;;;;;;0.08;0.08;;;;;;;4.54;49.12;94863.19;5050418;28;20209;-64
2023/01/31 07:25:35;;;;;;;0.25;0.25;;;;;;;4.89;48.41;94871.13;5050135;28;20219;-63
2023/01/31 07:28:02;;;;;;;0.00;0.00;;;;;;;5.37;47.43;94858.00;5050942;28;20204;-64
2023/01/31 07:30:29;;;;;;;0.68;0.60;;;;;;;5.25;47.26;94859.81;5050328;28;20237;-64
2023/01/31 07:32:56;;;;;;;0.00;0.00;;;;;;;5.27;47.00;94861.19;5050092;28;20239;-63
2023/01/31 07:35:23;;;;;;;2.45;0.75;;;;;;;5.61;46.83;94859.63;5050305;28;20213;-64
2023/01/31 07:37:51;;;;;;;0.10;0.10;;;;;;;5.95;45.94;94857.06;5050497;28;20648;-64
2023/01/31 07:40:18;;;;;;;0.00;0.00;;;;;;;5.54;46.74;94866.75;5050694;28;20250;-64
2023/01/31 07:42:46;;;;;;;2.15;1.45;;;;;;;5.76;46.98;94863.38;5050025;28;20232;-63
2023/01/31 07:45:14;;;;;;;3.20;2.03;;;;;;;5.59;47.39;94859.06;5049623;28;20694;-64
2023/01/31 07:47:59;;;;;;;0.05;0.05;;;;;;;5.91;46.54;94861.13;5049917;28;20608;-64
2023/01/31 07:50:26;;;;;;;2.67;1.05;;;;;;;6.04;46.25;94849.69;5050169;28;20196;-63
2023/01/31 07:52:55;;;;;;;0.80;0.80;;;;;;;5.45;47.07;94865.50;5050125;28;20295;-65
2023/01/31 07:55:22;;;;;;;0.00;0.00;;;;;;;5.18;47.86;94865.88;5049851;28;20295;-64
2023/01/31 07:57:49;;;;;;;1.95;0.88;;;;;;;6.06;46.71;94868.47;5049580;28;20567;-63
2023/01/31 08:03:33;;;;;;;0.38;0.38;;;;;;;6.05;46.39;94856.50;5036152;28;20201;-63
2023/01/31 08:05:59;;;;;;;0.10;0.10;;;;;;;5.61;47.31;94854.44;5035264;28;20262;-64
2023/01/31 08:08:26;;;;;;;2.67;2.47;;;;;;;5.91;47.57;94847.34;5049727;28;20207;-63
2023/01/31 08:10:53;;;;;;;1.27;0.73;;;;;;;5.42;48.04;94858.16;5049106;28;20250;-64
2023/01/31 08:13:21;;;;;;;0.70;0.70;;;;;;;5.91;47.68;94870.75;5049502;28;20674;-63
2023/01/31 08:15:51;;;;;;;0.63;0.63;;;;;;;6.07;47.54;94854.47;5048856;28;20212;-64
2023/01/31 08:18:18;;;;;;;0.17;0.17;;;;;;;5.91;47.27;94845.53;5049480;28;20197;-62
2023/01/31 08:20:45;;;;;;;0.00;0.00;;;;;;;6.17;47.14;94843.47;5048531;28;20208;-62
2023/01/31 08:23:12;;;;;;;0.10;0.10;;;;;;;6.08;47.74;94840.41;5049223;28;20204;-62
2023/01/31 08:25:39;;;;;;;0.00;0.00;;;;;;;6.53;46.60;94846.53;5048920;28;20192;-62
2023/01/31 08:28:06;;;;;;;0.13;0.13;;;;;;;5.76;47.86;94857.38;5049367;28;20209;-68
2023/01/31 08:30:33;;;;;;;0.68;0.68;;;;;;;6.28;46.86;94840.84;5035709;28;20193;-65
2023/01/31 08:33:00;;;;;;;0.00;0.00;;;;;;;6.04;47.58;94841.88;5049167;28;20691;-64
2023/01/31 08:35:27;;;;;;;0.73;0.45;;;;;;;6.24;46.68;94852.72;5048879;28;20258;-63
2023/01/31 08:37:54;;;;;;;0.00;0.00;;;;;;;6.28;47.04;94843.44;5049267;28;20517;-64
2023/01/31 08:40:40;;;;;;;0.00;0.00;;;;;;;6.55;45.99;94846.31;5048476;28;20188;-65
2023/01/31 08:43:07;;;;;;;0.13;0.13;;;;;;;7.16;45.07;94844.59;5049056;28;20232;-64
2023/01/31 08:45:35;;;;;;;0.45;0.45;;;;;;;7.07;44.86;94832.97;5048606;28;20759;-64
2023/01/31 08:48:03;;;;;;;0.10;0.10;;;;;;;6.73;45.05;94839.09;5049411;28;20531;-65
2023/01/31 08:50:31;;;;;;;0.00;0.00;;;;;;;6.67;45.36;94845.25;5048958;28;20307;-62
2023/01/31 08:53:01;;;;;;;0.08;0.08;;;;;;;6.58;45.83;94846.66;5049237;28;20254;-63
2023/01/31 08:55:30;;;;;;;0.00;0.00;;;;;;;6.74;45.60;94845.91;5048721;28;20220;-63
2023/01/31 08:57:56;;;;;;;0.38;0.20;;;;;;;6.25;45.93;94866.53;5049050;28;20898;-64
2023/01/31 09:00:26;;;;;;;1.63;0.28;;;;;;;6.29;46.18;94847.63;5048124;28;20250;-61
2023/01/31 09:02:56;;;;;;;0.30;0.30;;;;;;;6.95;45.12;94850.44;5048320;28;20200;-64
2023/01/31 09:05:25;;;;;;;0.30;0.30;;;;;;;6.96;45.44;94844.22;5047767;28;20196;-63
2023/01/31 09:07:52;;;;;;;0.05;0.05;;;;;;;6.55;45.59;94830.72;5048503;28;20185;-65
2023/01/31 09:10:20;;;;;;;0.43;0.43;;;;;;;6.97;45.05;94853.63;5047705;28;20205;-64
2023/01/31 09:12:47;;;;;;;0.32;0.32;;;;;;;6.82;44.99;94857.78;5049265;28;20231;-64
2023/01/31 09:15:14;;;;;;;0.45;0.45;;;;;;;7.11;44.45;94849.72;5047989;28;20197;-65
2023/01/31 09:17:42;;;;;;;0.00;0.00;;;;;;;7.37;43.94;94850.13;5048900;28;20736;-63
2023/01/31 09:20:09;;;;;;;0.20;0.20;;;;;;;6.92;44.27;94847.53;5047660;28;20204;-64
2023/01/31 09:22:36;;;;;;;1.27;1.20;;;;;;;7.14;44.47;94833.59;5048869;28;20189;-64
2023/01/31 09:25:05;;;;;;;0.00;0.00;;;;;;;6.68;44.79;94827.84;5048237;28;20220;-65
2023/01/31 09:27:31;;;;;;;0.00;0.00;;;;;;;7.88;43.56;94834.22;5048524;28;20710;-63
2023/01/31 09:29:59;;;;;;;0.63;0.35;;;;;;;7.48;43.68;94836.22;5048115;28;20205;-66
2023/01/31 09:32:26;;;;;;;1.35;1.10;;;;;;;7.09;43.84;94827.50;5048620;28;20282;-64
2023/01/31 09:34:52;;;;;;;0.32;0.32;;;;;;;7.41;43.15;94819.97;5047896;28;20188;-64
2023/01/31 09:37:19;;;;;;;0.10;0.10;;;;;;;7.01;43.60;94814.88;5048511;28;20259;-64
2023/01/31 09:39:46;;;;;;;0.00;0.00;;;;;;;7.44;43.85;94809.84;5047711;28;20310;-64
2023/01/31 09:42:22;;;;;;;0.00;0.00;;;;;;;8.09;42.60;94812.59;5048346;28;20192;-64
2023/01/31 09:44:58;;;;;;;0.90;0.35;;;;;;;8.36;41.48;94800.41;5047354;28;20208;-63
2023/01/31 09:47:29;;;;;;;0.08;0.08;;;;;;;8.56;41.60;94811.09;5047891;28;20200;-64
2023/01/31 09:50:21;;;;;;;0.10;0.10;;;;;;;8.36;41.83;94817.94;5047851;28;20270;-63
2023/01/31 09:52:49;;;;;;;0.00;0.00;;;;;;;8.51;41.14;94818.88;5047754;28;20588;-62
2023/01/31 09:55:18;;;;;;;0.25;0.25;;;;;;;8.33;40.92;94803.53;5047663;28;20304;-63
2023/01/31 09:57:56;;;;;;;0.63;0.63;;;;;;;8.49;41.14;94807.09;5048151;28;20695;-65
2023/01/31 10:00:31;;;;;;;0.20;0.20;;;;;;;9.26;40.13;94802.38;5047630;28;20192;-63
2023/01/31 10:03:14;;;;;;;0.00;0.00;;;;;;;8.99;40.20;94787.53;5035667;28;20667;-64
2023/01/31 10:06:29;;;;;;;0.20;0.20;;;;;;;10.02;38.84;94794.00;5046167;28;20258;-65
2023/01/31 10:09:18;;;;;;;0.00;0.00;;;;;;;9.65;39.57;94795.88;5025760;28;20276;-65
2023/01/31 10:11:58;;;;;;;0.52;0.22;;;;;;;9.14;39.81;94803.31;5025064;28;20316;-66
2023/01/31 10:14:46;;;;;;;1.10;0.73;;;;;;;7.69;41.70;94812.03;5036574;28;20284;-65
2023/01/31 10:17:16;;;;;;;0.00;0.00;;;;;;;8.12;41.88;94805.06;5051767;28;20269;-67
2023/01/31 10:19:43;;;;;;;0.00;0.00;;;;;;;8.35;41.25;94800.66;5052458;28;20205;-63
2023/01/31 10:22:19;;;;;;;0.00;0.00;;;;;;;8.10;41.23;94793.31;5052452;28;20683;-63
2023/01/31 10:24:57;;;;;;;0.03;0.03;;;;;;;9.03;40.94;94798.25;5051959;28;20200;-63
2023/01/31 10:28:06;;;;;;;0.28;0.28;;;;;;;9.17;39.96;94800.22;5039492;28;20197;-65
2023/01/31 10:30:44;;;;;;;0.00;0.00;;;;;;;8.81;40.10;94793.06;5047071;28;20722;-63
2023/01/31 10:33:23;;;;;;;0.00;0.00;;;;;;;8.20;40.92;94793.41;5051673;28;20236;-64
2023/01/31 10:35:53;;;;;;;0.05;0.05;;;;;;;8.46;40.90;94787.50;5051463;28;20211;-62
2023/01/31 10:38:28;;;;;;;0.00;0.00;;;;;;;8.23;41.72;94787.69;5051149;28;20680;-64
2023/01/31 10:41:11;;;;;;;0.00;0.00;;;;;;;8.21;42.24;94787.19;5050683;28;20287;-62
2023/01/31 10:43:44;;;;;;;0.20;0.20;;;;;;;8.71;41.08;94792.19;5038909;28;20223;-64
2023/01/31 10:46:11;;;;;;;0.35;0.30;;;;;;;8.29;41.39;94788.56;5050641;28;20200;-65
2023/01/31 10:48:41;;;;;;;0.15;0.15;;;;;;;7.93;41.85;94790.75;5051100;28;20659;-63
2023/01/31 10:51:12;;;;;;;0.10;0.10;;;;;;;7.48;42.59;94795.28;5050406;28;20321;-63
2023/01/31 10:53:39;;;;;;;0.28;0.28;;;;;;;7.73;42.30;94802.72;5051601;28;20196;-63
2023/01/31 10:56:15;;;;;;;0.00;0.00;;;;;;;7.90;42.20;94798.25;5050494;28;20196;-65
2023/01/31 10:58:43;;;;;;;0.00;0.00;;;;;;;7.92;42.34;94785.75;5051297;28;20207;-64
2023/01/31 11:01:13;;;;;;;0.32;0.32;;;;;;;7.10;43.50;94798.63;5050320;28;20593;-65
2023/01/31 11:03:49;;;;;;;0.00;0.00;;;;;;;7.22;42.67;94800.34;5050907;28;20608;-64
2023/01/31 11:06:17;;;;;;;0.32;0.32;;;;;;;7.03;43.42;94792.78;5050354;28;20660;-64
2023/01/31 11:08:49;;;;;;;0.25;0.25;;;;;;;7.76;42.06;94797.00;5050908;28;20208;-64
2023/01/31 11:11:18;;;;;;;0.00;0.00;;;;;;;7.67;42.72;94798.44;5050658;28;20584;-64
2023/01/31 11:13:57;;;;;;;0.00;0.00;;;;;;;7.51;43.36;94794.84;5050529;28;20201;-66
2023/01/31 11:16:38;;;;;;;0.13;0.13;;;;;;;7.02;43.50;94791.22;5050593;28;20308;-67
2023/01/31 11:19:36;;;;;;;0.00;0.00;;;;;;;7.59;43.06;94793.66;5039276;28;20207;-66
2023/01/31 11:22:04;;;;;;;1.17;0.90;;;;;;;7.50;43.17;94797.69;5041612;28;20239;-64
2023/01/31 11:24:33;;;;;;;0.00;0.00;;;;;;;7.67;42.49;94801.84;5049384;28;20193;-66
2023/01/31 11:27:08;;;;;;;0.00;0.00;;;;;;;7.26;43.80;94785.84;5049294;28;20208;-65
2023/01/31 11:29:40;;;;;;;0.17;0.17;;;;;;;7.32;43.04;94793.47;5049860;28;20215;-66
2023/01/31 11:32:17;;;;;;;0.10;0.10;;;;;;;7.29;43.39;94795.78;5049771;28;20320;-66
2023/01/31 11:35:13;;;;;;;0.13;0.13;;;;;;;6.88;45.15;94808.13;5050427;28;20204;-64
2023/01/31 11:38:19;;;;;;;0.40;0.40;;;;;;;7.15;44.92;94803.91;5042258;28;20231;-65
2023/01/31 11:40:46;;;;;;;0.00;0.00;;;;;;;7.34;44.82;94801.06;5040643;28;20663;-63
2023/01/31 11:43:12;;;;;;;0.00;0.00;;;;;;;7.12;45.04;94801.78;5050022;28;20279;-64
2023/01/31 11:45:44;;;;;;;0.13;0.13;;;;;;;7.16;45.62;94787.25;5050110;28;20261;-65
2023/01/31 11:48:12;;;;;;;0.40;0.40;;;;;;;7.22;45.60;94788.13;5050736;28;20200;-64
2023/01/31 11:50:43;;;;;;;0.57;0.57;;;;;;;7.32;45.29;94784.91;5048866;28;20250;-62
2023/01/31 11:53:19;;;;;;;0.00;0.00;;;;;;;7.87;44.47;94796.91;5049578;28;20542;-64
2023/01/31 11:55:49;;;;;;;0.00;0.00;;;;;;;6.97;45.91;94792.94;5049280;28;20212;-63
2023/01/31 11:58:20;;;;;;;0.10;0.10;;;;;;;6.83;46.65;94792.44;5048552;28;20271;-64
2023/01/31 12:00:58;;;;;;;0.00;0.00;;;;;;;7.41;45.60;94796.50;5049501;28;20421;-67
2023/01/31 12:03:25;;;;;;;0.00;0.00;;;;;;;7.08;46.39;94785.03;5050024;28;20633;-63
2023/01/31 12:06:09;;;;;;;0.22;0.22;;;;;;;6.39;47.45;94790.56;5049363;28;20537;-64
2023/01/31 12:08:40;;;;;;;0.00;0.00;;;;;;;6.53;47.44;94789.28;5048309;28;20660;-65
2023/01/31 12:11:19;;;;;;;0.15;0.15;;;;;;;6.75;47.13;94799.84;5049127;28;20200;-65
2023/01/31 12:13:52;;;;;;;0.00;0.00;;;;;;;7.10;46.57;94793.41;5049384;28;20205;-64